sensor_id;sensor_type;location;lat;lon;timestamp;P1;durP1;ratioP1;P2;durP2;ratioP2
36963;SDS011;22878;48.616;35.326;2023-03-09T00:44:14;32.00;;;12.60;;
36963;SDS011;22878;48.616;35.326;2023-03-09T00:49:34;42.30;;;14.90;;
36963;SDS011;22878;48.616;35.326;2023-03-09T00:52:59;38.00;;;14.70;;
36963;SDS011;22878;48.616;35.326;2023-03-09T00:55:56;42.40;;;14.90;;
36963;SDS011;22878;48.616;35.326;2023-03-09T00:58:29;40.80;;;14.70;;
36963;SDS011;22878;48.616;35.326;2023-03-09T01:01:07;39.70;;;15.10;;
36963;SDS011;22878;48.616;35.326;2023-03-09T01:04:12;39.00;;;14.70;;
36963;SDS011;22878;48.616;35.326;2023-03-09T01:07:37;37.40;;;15.20;;
36963;SDS011;22878;48.616;35.326;2023-03-09T01:10:25;45.10;;;16.90;;
36963;SDS011;22878;48.616;35.326;2023-03-09T01:13:13;33.50;;;15.50;;
36963;SDS011;22878;48.616;35.326;2023-03-09T01:15:41;43.30;;;17.40;;
36963;SDS011;22878;48.616;35.326;2023-03-09T01:18:27;38.10;;;16.70;;
36963;SDS011;22878;48.616;35.326;2023-03-09T01:20:53;38.10;;;16.70;;
36963;SDS011;22878;48.616;35.326;2023-03-09T01:26:28;49.00;;;18.00;;
36963;SDS011;22878;48.616;35.326;2023-03-09T01:29:31;47.20;;;19.50;;
36963;SDS011;22878;48.616;35.326;2023-03-09T01:31:57;42.90;;;18.10;;
36963;SDS011;22878;48.616;35.326;2023-03-09T01:34:23;45.30;;;18.70;;
36963;SDS011;22878;48.616;35.326;2023-03-09T01:37:09;50.90;;;19.70;;
36963;SDS011;22878;48.616;35.326;2023-03-09T01:39:35;44.10;;;17.50;;
36963;SDS011;22878;48.616;35.326;2023-03-09T01:48:12;47.10;;;19.00;;
36963;SDS011;22878;48.616;35.326;2023-03-09T01:50:39;50.80;;;20.80;;
36963;SDS011;22878;48.616;35.326;2023-03-09T01:53:52;55.50;;;22.60;;
36963;SDS011;22878;48.616;35.326;2023-03-09T01:56:21;57.50;;;22.70;;
36963;SDS011;22878;48.616;35.326;2023-03-09T01:59:30;43.20;;;18.90;;
36963;SDS011;22878;48.616;35.326;2023-03-09T02:02:06;45.40;;;20.90;;
36963;SDS011;22878;48.616;35.326;2023-03-09T02:04:42;64.30;;;25.10;;
36963;SDS011;22878;48.616;35.326;2023-03-09T02:07:49;63.90;;;25.40;;
36963;SDS011;22878;48.616;35.326;2023-03-09T02:10:37;66.20;;;22.70;;
36963;SDS011;22878;48.616;35.326;2023-03-09T02:13:29;71.50;;;27.70;;
36963;SDS011;22878;48.616;35.326;2023-03-09T02:16:37;67.30;;;26.90;;
36963;SDS011;22878;48.616;35.326;2023-03-09T02:23:00;63.10;;;25.90;;
36963;SDS011;22878;48.616;35.326;2023-03-09T02:25:48;81.10;;;29.70;;
36963;SDS011;22878;48.616;35.326;2023-03-09T02:29:00;77.10;;;29.80;;
36963;SDS011;22878;48.616;35.326;2023-03-09T02:32:03;87.40;;;30.70;;
36963;SDS011;22878;48.616;35.326;2023-03-09T02:35:19;90.90;;;31.50;;
36963;SDS011;22878;48.616;35.326;2023-03-09T02:38:25;84.70;;;29.90;;
36963;SDS011;22878;48.616;35.326;2023-03-09T02:41:12;99.20;;;33.60;;
36963;SDS011;22878;48.616;35.326;2023-03-09T02:43:49;93.50;;;32.50;;
36963;SDS011;22878;48.616;35.326;2023-03-09T02:46:42;108.50;;;38.80;;
36963;SDS011;22878;48.616;35.326;2023-03-09T02:49:16;109.20;;;38.90;;
36963;SDS011;22878;48.616;35.326;2023-03-09T02:54:26;117.60;;;39.50;;
36963;SDS011;22878;48.616;35.326;2023-03-09T02:57:02;131.90;;;41.60;;
36963;SDS011;22878;48.616;35.326;2023-03-09T03:00:05;118.10;;;41.50;;
36963;SDS011;22878;48.616;35.326;2023-03-09T03:02:35;126.40;;;42.30;;
36963;SDS011;22878;48.616;35.326;2023-03-09T03:05:35;121.20;;;42.50;;
36963;SDS011;22878;48.616;35.326;2023-03-09T03:08:12;120.20;;;42.20;;
36963;SDS011;22878;48.616;35.326;2023-03-09T03:10:50;112.80;;;39.70;;
36963;SDS011;22878;48.616;35.326;2023-03-09T03:13:23;107.20;;;35.90;;
36963;SDS011;22878;48.616;35.326;2023-03-09T03:16:12;95.50;;;34.00;;
36963;SDS011;22878;48.616;35.326;2023-03-09T03:18:49;89.90;;;32.50;;
36963;SDS011;22878;48.616;35.326;2023-03-09T03:21:27;83.10;;;32.40;;
36963;SDS011;22878;48.616;35.326;2023-03-09T03:24:17;84.80;;;31.10;;
36963;SDS011;22878;48.616;35.326;2023-03-09T03:26:56;83.90;;;31.40;;
36963;SDS011;22878;48.616;35.326;2023-03-09T03:29:30;85.40;;;32.00;;
36963;SDS011;22878;48.616;35.326;2023-03-09T03:32:07;75.00;;;30.40;;
36963;SDS011;22878;48.616;35.326;2023-03-09T03:34:44;71.80;;;29.00;;
36963;SDS011;22878;48.616;35.326;2023-03-09T03:37:21;75.50;;;29.40;;
36963;SDS011;22878;48.616;35.326;2023-03-09T03:40:12;76.80;;;29.50;;
36963;SDS011;22878;48.616;35.326;2023-03-09T03:42:45;75.60;;;27.90;;
36963;SDS011;22878;48.616;35.326;2023-03-09T03:45:49;71.30;;;27.50;;
36963;SDS011;22878;48.616;35.326;2023-03-09T03:49:03;73.50;;;28.70;;
36963;SDS011;22878;48.616;35.326;2023-03-09T03:51:53;75.10;;;29.90;;
36963;SDS011;22878;48.616;35.326;2023-03-09T03:54:30;75.10;;;29.80;;
36963;SDS011;22878;48.616;35.326;2023-03-09T03:57:07;70.60;;;29.70;;
36963;SDS011;22878;48.616;35.326;2023-03-09T03:59:44;75.00;;;29.00;;
36963;SDS011;22878;48.616;35.326;2023-03-09T04:02:20;76.00;;;30.30;;
36963;SDS011;22878;48.616;35.326;2023-03-09T04:04:58;69.40;;;28.40;;
36963;SDS011;22878;48.616;35.326;2023-03-09T04:07:48;71.40;;;28.60;;
36963;SDS011;22878;48.616;35.326;2023-03-09T04:10:25;71.00;;;29.30;;
36963;SDS011;22878;48.616;35.326;2023-03-09T04:13:02;67.00;;;28.50;;
36963;SDS011;22878;48.616;35.326;2023-03-09T04:15:39;62.40;;;25.70;;
36963;SDS011;22878;48.616;35.326;2023-03-09T04:18:16;65.50;;;25.00;;
36963;SDS011;22878;48.616;35.326;2023-03-09T04:20:53;55.70;;;25.20;;
36963;SDS011;22878;48.616;35.326;2023-03-09T04:23:30;62.00;;;26.00;;
36963;SDS011;22878;48.616;35.326;2023-03-09T04:26:04;61.30;;;25.20;;
36963;SDS011;22878;48.616;35.326;2023-03-09T04:29:09;59.00;;;24.90;;
36963;SDS011;22878;48.616;35.326;2023-03-09T04:31:59;65.70;;;26.40;;
36963;SDS011;22878;48.616;35.326;2023-03-09T04:34:36;67.50;;;27.40;;
36963;SDS011;22878;48.616;35.326;2023-03-09T04:37:13;60.50;;;25.70;;
36963;SDS011;22878;48.616;35.326;2023-03-09T04:39:50;63.30;;;25.40;;
36963;SDS011;22878;48.616;35.326;2023-03-09T04:42:27;55.10;;;24.10;;
36963;SDS011;22878;48.616;35.326;2023-03-09T04:45:24;61.60;;;24.20;;
36963;SDS011;22878;48.616;35.326;2023-03-09T04:48:02;57.10;;;24.10;;
36963;SDS011;22878;48.616;35.326;2023-03-09T04:50:39;61.80;;;23.70;;
36963;SDS011;22878;48.616;35.326;2023-03-09T04:53:16;56.70;;;22.70;;
36963;SDS011;22878;48.616;35.326;2023-03-09T04:55:53;51.40;;;21.80;;
36963;SDS011;22878;48.616;35.326;2023-03-09T04:58:30;50.10;;;21.10;;
36963;SDS011;22878;48.616;35.326;2023-03-09T05:01:07;56.10;;;22.30;;
36963;SDS011;22878;48.616;35.326;2023-03-09T05:03:57;50.20;;;21.00;;
36963;SDS011;22878;48.616;35.326;2023-03-09T05:06:34;59.80;;;22.40;;
36963;SDS011;22878;48.616;35.326;2023-03-09T05:09:11;52.80;;;22.50;;
36963;SDS011;22878;48.616;35.326;2023-03-09T05:11:48;58.80;;;21.90;;
36963;SDS011;22878;48.616;35.326;2023-03-09T05:14:25;53.60;;;20.90;;
36963;SDS011;22878;48.616;35.326;2023-03-09T05:17:02;44.40;;;19.60;;
36963;SDS011;22878;48.616;35.326;2023-03-09T05:19:39;54.70;;;19.90;;
36963;SDS011;22878;48.616;35.326;2023-03-09T05:22:17;49.40;;;18.90;;
36963;SDS011;22878;48.616;35.326;2023-03-09T05:24:55;53.10;;;19.60;;
36963;SDS011;22878;48.616;35.326;2023-03-09T05:27:32;52.00;;;21.60;;
36963;SDS011;22878;48.616;35.326;2023-03-09T05:30:11;80.20;;;34.80;;
36963;SDS011;22878;48.616;35.326;2023-03-09T05:32:47;99.80;;;40.70;;
36963;SDS011;22878;48.616;35.326;2023-03-09T05:35:21;102.90;;;45.70;;
36963;SDS011;22878;48.616;35.326;2023-03-09T05:37:58;97.30;;;39.30;;
36963;SDS011;22878;48.616;35.326;2023-03-09T05:40:35;84.10;;;31.50;;
36963;SDS011;22878;48.616;35.326;2023-03-09T05:43:15;70.40;;;27.30;;
36963;SDS011;22878;48.616;35.326;2023-03-09T05:45:55;68.00;;;27.60;;
36963;SDS011;22878;48.616;35.326;2023-03-09T05:48:46;67.70;;;25.10;;
36963;SDS011;22878;48.616;35.326;2023-03-09T05:51:22;53.40;;;22.00;;
36963;SDS011;22878;48.616;35.326;2023-03-09T05:53:58;52.70;;;20.10;;
36963;SDS011;22878;48.616;35.326;2023-03-09T05:56:48;56.70;;;21.90;;
36963;SDS011;22878;48.616;35.326;2023-03-09T05:59:28;51.90;;;21.00;;
36963;SDS011;22878;48.616;35.326;2023-03-09T06:02:06;52.50;;;20.70;;
36963;SDS011;22878;48.616;35.326;2023-03-09T06:04:43;54.10;;;21.80;;
36963;SDS011;22878;48.616;35.326;2023-03-09T06:07:20;56.40;;;22.70;;
36963;SDS011;22878;48.616;35.326;2023-03-09T06:09:57;54.50;;;21.70;;
36963;SDS011;22878;48.616;35.326;2023-03-09T06:12:35;53.90;;;23.20;;
36963;SDS011;22878;48.616;35.326;2023-03-09T06:15:12;55.90;;;23.10;;
36963;SDS011;22878;48.616;35.326;2023-03-09T06:17:49;56.80;;;22.40;;
36963;SDS011;22878;48.616;35.326;2023-03-09T06:20:26;58.80;;;22.20;;
36963;SDS011;22878;48.616;35.326;2023-03-09T06:23:03;63.50;;;22.90;;
36963;SDS011;22878;48.616;35.326;2023-03-09T06:25:44;61.00;;;24.60;;
36963;SDS011;22878;48.616;35.326;2023-03-09T06:28:19;53.50;;;22.40;;
36963;SDS011;22878;48.616;35.326;2023-03-09T06:30:56;55.10;;;22.40;;
36963;SDS011;22878;48.616;35.326;2023-03-09T06:33:33;52.40;;;22.00;;
36963;SDS011;22878;48.616;35.326;2023-03-09T06:36:26;60.20;;;25.00;;
36963;SDS011;22878;48.616;35.326;2023-03-09T06:39:04;73.20;;;28.90;;
36963;SDS011;22878;48.616;35.326;2023-03-09T06:41:53;101.90;;;36.10;;
36963;SDS011;22878;48.616;35.326;2023-03-09T06:44:29;114.00;;;39.20;;
36963;SDS011;22878;48.616;35.326;2023-03-09T06:47:07;98.00;;;35.10;;
36963;SDS011;22878;48.616;35.326;2023-03-09T06:49:53;107.10;;;38.10;;
36963;SDS011;22878;48.616;35.326;2023-03-09T06:52:55;93.70;;;34.00;;
36963;SDS011;22878;48.616;35.326;2023-03-09T06:55:45;92.70;;;33.60;;
36963;SDS011;22878;48.616;35.326;2023-03-09T06:58:34;91.80;;;32.80;;
36963;SDS011;22878;48.616;35.326;2023-03-09T07:01:12;79.20;;;29.20;;
36963;SDS011;22878;48.616;35.326;2023-03-09T07:03:49;75.70;;;26.50;;
36963;SDS011;22878;48.616;35.326;2023-03-09T07:06:30;59.90;;;23.90;;
36963;SDS011;22878;48.616;35.326;2023-03-09T07:12:32;59.60;;;23.70;;
36963;SDS011;22878;48.616;35.326;2023-03-09T07:15:18;60.50;;;22.80;;
36963;SDS011;22878;48.616;35.326;2023-03-09T07:17:46;65.90;;;23.90;;
36963;SDS011;22878;48.616;35.326;2023-03-09T07:20:34;68.70;;;24.20;;
36963;SDS011;22878;48.616;35.326;2023-03-09T07:23:13;62.30;;;22.50;;
36963;SDS011;22878;48.616;35.326;2023-03-09T07:25:46;58.40;;;22.70;;
36963;SDS011;22878;48.616;35.326;2023-03-09T07:28:15;51.10;;;20.60;;
36963;SDS011;22878;48.616;35.326;2023-03-09T07:34:07;60.70;;;20.30;;
36963;SDS011;22878;48.616;35.326;2023-03-09T07:36:45;64.90;;;23.40;;
36963;SDS011;22878;48.616;35.326;2023-03-09T07:39:46;60.00;;;20.60;;
36963;SDS011;22878;48.616;35.326;2023-03-09T07:42:52;56.90;;;21.00;;
36963;SDS011;22878;48.616;35.326;2023-03-09T07:45:29;56.80;;;20.60;;
36963;SDS011;22878;48.616;35.326;2023-03-09T07:48:55;55.80;;;21.50;;
36963;SDS011;22878;48.616;35.326;2023-03-09T07:51:28;55.90;;;20.90;;
36963;SDS011;22878;48.616;35.326;2023-03-09T07:54:33;45.30;;;19.10;;
36963;SDS011;22878;48.616;35.326;2023-03-09T07:57:31;44.00;;;19.10;;
36963;SDS011;22878;48.616;35.326;2023-03-09T08:00:14;51.30;;;19.70;;
36963;SDS011;22878;48.616;35.326;2023-03-09T08:02:48;53.10;;;19.70;;
36963;SDS011;22878;48.616;35.326;2023-03-09T08:05:44;42.30;;;17.50;;
36963;SDS011;22878;48.616;35.326;2023-03-09T08:08:23;47.70;;;19.40;;
36963;SDS011;22878;48.616;35.326;2023-03-09T08:10:52;44.90;;;18.00;;
36963;SDS011;22878;48.616;35.326;2023-03-09T08:13:19;47.40;;;18.20;;
36963;SDS011;22878;48.616;35.326;2023-03-09T08:15:47;46.40;;;17.70;;
36963;SDS011;22878;48.616;35.326;2023-03-09T08:18:13;41.90;;;16.40;;
36963;SDS011;22878;48.616;35.326;2023-03-09T08:20:39;40.90;;;16.70;;
36963;SDS011;22878;48.616;35.326;2023-03-09T08:23:05;42.00;;;16.60;;
36963;SDS011;22878;48.616;35.326;2023-03-09T08:25:32;40.90;;;18.10;;
36963;SDS011;22878;48.616;35.326;2023-03-09T08:27:58;48.40;;;17.60;;
36963;SDS011;22878;48.616;35.326;2023-03-09T08:30:24;37.40;;;15.80;;
36963;SDS011;22878;48.616;35.326;2023-03-09T08:32:50;39.00;;;16.40;;
36963;SDS011;22878;48.616;35.326;2023-03-09T08:35:18;34.70;;;15.80;;
36963;SDS011;22878;48.616;35.326;2023-03-09T08:37:46;32.60;;;17.10;;
36963;SDS011;22878;48.616;35.326;2023-03-09T08:40:12;34.20;;;16.00;;
36963;SDS011;22878;48.616;35.326;2023-03-09T08:42:38;29.40;;;15.50;;
36963;SDS011;22878;48.616;35.326;2023-03-09T08:45:05;31.30;;;15.90;;
36963;SDS011;22878;48.616;35.326;2023-03-09T08:47:32;28.20;;;15.30;;
36963;SDS011;22878;48.616;35.326;2023-03-09T08:49:58;28.80;;;15.30;;
36963;SDS011;22878;48.616;35.326;2023-03-09T08:52:24;27.90;;;16.40;;
36963;SDS011;22878;48.616;35.326;2023-03-09T08:54:50;29.10;;;16.40;;
36963;SDS011;22878;48.616;35.326;2023-03-09T08:57:17;28.30;;;14.80;;
36963;SDS011;22878;48.616;35.326;2023-03-09T08:59:43;28.50;;;15.90;;
36963;SDS011;22878;48.616;35.326;2023-03-09T09:02:11;30.90;;;16.10;;
36963;SDS011;22878;48.616;35.326;2023-03-09T09:04:42;31.60;;;16.60;;
36963;SDS011;22878;48.616;35.326;2023-03-09T09:07:08;32.20;;;15.40;;
36963;SDS011;22878;48.616;35.326;2023-03-09T09:09:34;32.20;;;16.80;;
36963;SDS011;22878;48.616;35.326;2023-03-09T09:12:00;29.20;;;16.30;;
36963;SDS011;22878;48.616;35.326;2023-03-09T09:14:25;31.60;;;16.00;;
36963;SDS011;22878;48.616;35.326;2023-03-09T09:16:51;29.00;;;15.70;;
36963;SDS011;22878;48.616;35.326;2023-03-09T09:19:17;29.20;;;15.80;;
36963;SDS011;22878;48.616;35.326;2023-03-09T09:21:43;27.40;;;16.10;;
36963;SDS011;22878;48.616;35.326;2023-03-09T09:24:09;23.30;;;14.70;;
36963;SDS011;22878;48.616;35.326;2023-03-09T09:26:35;23.20;;;14.00;;
36963;SDS011;22878;48.616;35.326;2023-03-09T09:29:00;26.50;;;14.70;;
36963;SDS011;22878;48.616;35.326;2023-03-09T09:31:27;19.90;;;12.50;;
36963;SDS011;22878;48.616;35.326;2023-03-09T09:33:53;30.00;;;15.00;;
36963;SDS011;22878;48.616;35.326;2023-03-09T09:36:19;55.10;;;27.10;;
36963;SDS011;22878;48.616;35.326;2023-03-09T09:38:46;23.60;;;14.00;;
36963;SDS011;22878;48.616;35.326;2023-03-09T09:43:47;18.80;;;11.70;;
36963;SDS011;22878;48.616;35.326;2023-03-09T09:46:18;21.80;;;12.30;;
36963;SDS011;22878;48.616;35.326;2023-03-09T09:48:46;21.50;;;12.50;;
36963;SDS011;22878;48.616;35.326;2023-03-09T09:56:49;23.90;;;11.10;;
36963;SDS011;22878;48.616;35.326;2023-03-09T10:02:17;25.10;;;13.10;;
36963;SDS011;22878;48.616;35.326;2023-03-09T10:05:10;22.10;;;11.80;;
36963;SDS011;22878;48.616;35.326;2023-03-09T10:07:48;21.20;;;11.20;;
36963;SDS011;22878;48.616;35.326;2023-03-09T10:10:18;23.90;;;11.50;;
36963;SDS011;22878;48.616;35.326;2023-03-09T10:12:47;25.00;;;12.70;;
36963;SDS011;22878;48.616;35.326;2023-03-09T10:18:12;24.80;;;11.00;;
36963;SDS011;22878;48.616;35.326;2023-03-09T10:20:50;24.10;;;11.80;;
36963;SDS011;22878;48.616;35.326;2023-03-09T10:23:24;26.00;;;12.90;;
36963;SDS011;22878;48.616;35.326;2023-03-09T10:25:56;29.30;;;13.40;;
36963;SDS011;22878;48.616;35.326;2023-03-09T10:28:27;27.60;;;12.60;;
36963;SDS011;22878;48.616;35.326;2023-03-09T10:31:42;31.70;;;13.20;;
36963;SDS011;22878;48.616;35.326;2023-03-09T10:34:18;29.80;;;12.10;;
36963;SDS011;22878;48.616;35.326;2023-03-09T10:39:44;24.40;;;11.90;;
36963;SDS011;22878;48.616;35.326;2023-03-09T10:42:21;31.80;;;12.30;;
36963;SDS011;22878;48.616;35.326;2023-03-09T10:50:15;20.40;;;9.00;;
36963;SDS011;22878;48.616;35.326;2023-03-09T10:52:42;28.70;;;10.40;;
36963;SDS011;22878;48.616;35.326;2023-03-09T10:58:00;19.40;;;9.50;;
36963;SDS011;22878;48.616;35.326;2023-03-09T11:00:34;19.50;;;8.90;;
36963;SDS011;22878;48.616;35.326;2023-03-09T11:03:00;26.70;;;8.90;;
36963;SDS011;22878;48.616;35.326;2023-03-09T11:05:30;26.20;;;9.30;;
36963;SDS011;22878;48.616;35.326;2023-03-09T11:07:57;20.00;;;8.90;;
36963;SDS011;22878;48.616;35.326;2023-03-09T11:10:30;20.10;;;7.50;;
36963;SDS011;22878;48.616;35.326;2023-03-09T11:13:01;19.30;;;7.80;;
36963;SDS011;22878;48.616;35.326;2023-03-09T11:15:32;16.80;;;6.20;;
36963;SDS011;22878;48.616;35.326;2023-03-09T11:18:03;17.50;;;6.60;;
36963;SDS011;22878;48.616;35.326;2023-03-09T11:20:57;13.10;;;5.50;;
36963;SDS011;22878;48.616;35.326;2023-03-09T11:33:58;13.10;;;4.60;;
36963;SDS011;22878;48.616;35.326;2023-03-09T11:36:47;20.10;;;4.70;;
36963;SDS011;22878;48.616;35.326;2023-03-09T11:39:18;9.20;;;4.50;;
36963;SDS011;22878;48.616;35.326;2023-03-09T11:41:49;10.30;;;4.60;;
36963;SDS011;22878;48.616;35.326;2023-03-09T11:44:25;9.90;;;3.70;;
36963;SDS011;22878;48.616;35.326;2023-03-09T11:46:58;16.40;;;4.60;;
36963;SDS011;22878;48.616;35.326;2023-03-09T11:49:28;9.70;;;4.30;;
36963;SDS011;22878;48.616;35.326;2023-03-09T11:51:56;14.10;;;4.40;;
36963;SDS011;22878;48.616;35.326;2023-03-09T11:54:31;11.60;;;4.10;;
36963;SDS011;22878;48.616;35.326;2023-03-09T11:57:02;8.00;;;3.70;;
36963;SDS011;22878;48.616;35.326;2023-03-09T12:04:47;10.10;;;3.90;;
36963;SDS011;22878;48.616;35.326;2023-03-09T12:12:52;12.60;;;4.20;;
36963;SDS011;22878;48.616;35.326;2023-03-09T12:15:37;10.50;;;4.10;;
36963;SDS011;22878;48.616;35.326;2023-03-09T12:18:34;9.90;;;3.80;;
36963;SDS011;22878;48.616;35.326;2023-03-09T12:21:08;13.00;;;3.80;;
36963;SDS011;22878;48.616;35.326;2023-03-09T12:28:43;9.90;;;3.80;;
36963;SDS011;22878;48.616;35.326;2023-03-09T12:36:25;6.80;;;3.30;;
36963;SDS011;22878;48.616;35.326;2023-03-09T12:47:39;9.90;;;2.90;;
36963;SDS011;22878;48.616;35.326;2023-03-09T13:00:56;9.80;;;3.30;;
36963;SDS011;22878;48.616;35.326;2023-03-09T13:03:29;14.00;;;3.90;;
36963;SDS011;22878;48.616;35.326;2023-03-09T13:05:59;12.30;;;4.10;;
36963;SDS011;22878;48.616;35.326;2023-03-09T13:08:34;8.30;;;3.40;;
36963;SDS011;22878;48.616;35.326;2023-03-09T13:32:35;13.90;;;4.30;;
36963;SDS011;22878;48.616;35.326;2023-03-09T13:35:15;15.30;;;5.00;;
36963;SDS011;22878;48.616;35.326;2023-03-09T13:37:41;16.20;;;5.50;;
36963;SDS011;22878;48.616;35.326;2023-03-09T13:42:41;25.10;;;6.40;;
36963;SDS011;22878;48.616;35.326;2023-03-09T13:47:55;16.20;;;5.00;;
36963;SDS011;22878;48.616;35.326;2023-03-09T13:50:24;11.90;;;4.40;;
36963;SDS011;22878;48.616;35.326;2023-03-09T13:52:59;15.10;;;4.90;;
36963;SDS011;22878;48.616;35.326;2023-03-09T13:55:58;18.50;;;6.00;;
36963;SDS011;22878;48.616;35.326;2023-03-09T13:58:27;16.90;;;4.70;;
36963;SDS011;22878;48.616;35.326;2023-03-09T14:00:57;10.20;;;3.30;;
36963;SDS011;22878;48.616;35.326;2023-03-09T14:03:26;10.90;;;3.70;;
36963;SDS011;22878;48.616;35.326;2023-03-09T14:06:01;10.40;;;3.90;;
36963;SDS011;22878;48.616;35.326;2023-03-09T14:08:48;17.70;;;4.90;;
36963;SDS011;22878;48.616;35.326;2023-03-09T14:11:22;10.60;;;4.90;;
36963;SDS011;22878;48.616;35.326;2023-03-09T14:16:25;11.80;;;4.80;;
36963;SDS011;22878;48.616;35.326;2023-03-09T14:18:53;16.00;;;5.30;;
36963;SDS011;22878;48.616;35.326;2023-03-09T14:21:33;14.10;;;5.50;;
36963;SDS011;22878;48.616;35.326;2023-03-09T14:24:11;22.00;;;7.70;;
36963;SDS011;22878;48.616;35.326;2023-03-09T14:26:46;27.10;;;8.70;;
36963;SDS011;22878;48.616;35.326;2023-03-09T14:31:43;28.30;;;9.60;;
36963;SDS011;22878;48.616;35.326;2023-03-09T14:36:51;66.90;;;20.90;;
36963;SDS011;22878;48.616;35.326;2023-03-09T14:44:29;58.20;;;18.60;;
36963;SDS011;22878;48.616;35.326;2023-03-09T14:47:04;55.10;;;16.80;;
36963;SDS011;22878;48.616;35.326;2023-03-09T14:49:37;118.90;;;26.40;;
36963;SDS011;22878;48.616;35.326;2023-03-09T14:52:02;85.90;;;23.20;;
36963;SDS011;22878;48.616;35.326;2023-03-09T14:54:28;69.50;;;21.70;;
36963;SDS011;22878;48.616;35.326;2023-03-09T14:56:54;76.00;;;26.10;;
36963;SDS011;22878;48.616;35.326;2023-03-09T14:59:20;57.60;;;19.50;;
36963;SDS011;22878;48.616;35.326;2023-03-09T15:01:48;37.50;;;11.90;;
36963;SDS011;22878;48.616;35.326;2023-03-09T15:04:20;33.90;;;12.00;;
36963;SDS011;22878;48.616;35.326;2023-03-09T15:06:46;63.90;;;20.80;;
36963;SDS011;22878;48.616;35.326;2023-03-09T15:09:15;65.40;;;23.40;;
36963;SDS011;22878;48.616;35.326;2023-03-09T15:11:41;76.30;;;25.90;;
36963;SDS011;22878;48.616;35.326;2023-03-09T15:14:30;56.30;;;19.30;;
36963;SDS011;22878;48.616;35.326;2023-03-09T15:16:59;38.20;;;13.20;;
36963;SDS011;22878;48.616;35.326;2023-03-09T15:19:25;29.50;;;11.60;;
36963;SDS011;22878;48.616;35.326;2023-03-09T15:21:52;23.80;;;8.10;;
36963;SDS011;22878;48.616;35.326;2023-03-09T15:24:24;19.60;;;6.80;;
36963;SDS011;22878;48.616;35.326;2023-03-09T15:26:51;20.20;;;8.00;;
36963;SDS011;22878;48.616;35.326;2023-03-09T15:29:18;30.90;;;12.70;;
36963;SDS011;22878;48.616;35.326;2023-03-09T15:31:44;48.00;;;15.40;;
36963;SDS011;22878;48.616;35.326;2023-03-09T15:34:10;64.00;;;22.30;;
36963;SDS011;22878;48.616;35.326;2023-03-09T15:36:36;76.60;;;26.10;;
36963;SDS011;22878;48.616;35.326;2023-03-09T15:39:02;84.20;;;27.40;;
36963;SDS011;22878;48.616;35.326;2023-03-09T15:41:28;80.30;;;24.80;;
36963;SDS011;22878;48.616;35.326;2023-03-09T15:43:56;59.90;;;19.10;;
36963;SDS011;22878;48.616;35.326;2023-03-09T15:46:50;40.00;;;14.00;;
36963;SDS011;22878;48.616;35.326;2023-03-09T15:49:16;44.30;;;15.50;;
36963;SDS011;22878;48.616;35.326;2023-03-09T15:51:42;48.40;;;17.80;;
36963;SDS011;22878;48.616;35.326;2023-03-09T15:54:08;91.80;;;37.70;;
36963;SDS011;22878;48.616;35.326;2023-03-09T15:56:33;102.90;;;35.10;;
36963;SDS011;22878;48.616;35.326;2023-03-09T15:58:59;133.40;;;56.10;;
36963;SDS011;22878;48.616;35.326;2023-03-09T16:01:24;89.30;;;41.10;;
36963;SDS011;22878;48.616;35.326;2023-03-09T16:03:52;56.90;;;24.50;;
36963;SDS011;22878;48.616;35.326;2023-03-09T16:06:18;51.90;;;22.30;;
36963;SDS011;22878;48.616;35.326;2023-03-09T16:08:45;46.10;;;18.60;;
36963;SDS011;22878;48.616;35.326;2023-03-09T16:11:12;39.50;;;14.70;;
36963;SDS011;22878;48.616;35.326;2023-03-09T16:13:37;33.60;;;12.70;;
36963;SDS011;22878;48.616;35.326;2023-03-09T16:16:04;26.40;;;10.70;;
36963;SDS011;22878;48.616;35.326;2023-03-09T16:18:31;43.70;;;18.30;;
36963;SDS011;22878;48.616;35.326;2023-03-09T16:20:59;52.50;;;21.80;;
36963;SDS011;22878;48.616;35.326;2023-03-09T16:23:25;33.50;;;13.50;;
36963;SDS011;22878;48.616;35.326;2023-03-09T16:25:52;26.10;;;11.70;;
36963;SDS011;22878;48.616;35.326;2023-03-09T16:28:20;23.30;;;8.30;;
36963;SDS011;22878;48.616;35.326;2023-03-09T16:30:50;24.70;;;8.40;;
36963;SDS011;22878;48.616;35.326;2023-03-09T16:33:15;19.70;;;7.90;;
36963;SDS011;22878;48.616;35.326;2023-03-09T16:35:41;20.90;;;7.70;;
36963;SDS011;22878;48.616;35.326;2023-03-09T16:38:09;19.50;;;7.20;;
36963;SDS011;22878;48.616;35.326;2023-03-09T16:40:36;27.80;;;8.30;;
36963;SDS011;22878;48.616;35.326;2023-03-09T16:43:03;20.10;;;6.90;;
36963;SDS011;22878;48.616;35.326;2023-03-09T16:45:28;20.10;;;7.10;;
36963;SDS011;22878;48.616;35.326;2023-03-09T16:47:54;23.20;;;7.90;;
36963;SDS011;22878;48.616;35.326;2023-03-09T16:50:20;26.00;;;7.70;;
36963;SDS011;22878;48.616;35.326;2023-03-09T16:52:47;17.50;;;7.30;;
36963;SDS011;22878;48.616;35.326;2023-03-09T16:55:15;20.80;;;6.30;;
36963;SDS011;22878;48.616;35.326;2023-03-09T16:57:42;18.00;;;6.50;;
36963;SDS011;22878;48.616;35.326;2023-03-09T17:00:11;13.00;;;5.20;;
36963;SDS011;22878;48.616;35.326;2023-03-09T17:02:38;15.40;;;6.90;;
36963;SDS011;22878;48.616;35.326;2023-03-09T17:05:05;13.40;;;5.10;;
36963;SDS011;22878;48.616;35.326;2023-03-09T17:07:33;18.80;;;6.00;;
36963;SDS011;22878;48.616;35.326;2023-03-09T17:10:00;22.60;;;5.70;;
36963;SDS011;22878;48.616;35.326;2023-03-09T17:12:28;17.50;;;5.20;;
36963;SDS011;22878;48.616;35.326;2023-03-09T17:14:54;14.20;;;4.20;;
36963;SDS011;22878;48.616;35.326;2023-03-09T17:17:20;8.60;;;3.80;;
36963;SDS011;22878;48.616;35.326;2023-03-09T17:19:47;6.70;;;3.00;;
36963;SDS011;22878;48.616;35.326;2023-03-09T17:22:13;9.00;;;3.70;;
36963;SDS011;22878;48.616;35.326;2023-03-09T17:24:38;8.60;;;3.10;;
36963;SDS011;22878;48.616;35.326;2023-03-09T17:27:04;11.60;;;3.30;;
36963;SDS011;22878;48.616;35.326;2023-03-09T17:29:50;9.50;;;3.90;;
36963;SDS011;22878;48.616;35.326;2023-03-09T17:32:15;9.00;;;2.90;;
36963;SDS011;22878;48.616;35.326;2023-03-09T17:34:42;9.10;;;3.70;;
36963;SDS011;22878;48.616;35.326;2023-03-09T17:37:08;7.90;;;3.70;;
36963;SDS011;22878;48.616;35.326;2023-03-09T17:39:33;9.80;;;3.80;;
36963;SDS011;22878;48.616;35.326;2023-03-09T17:42:01;9.00;;;3.60;;
36963;SDS011;22878;48.616;35.326;2023-03-09T17:44:26;11.30;;;3.80;;
36963;SDS011;22878;48.616;35.326;2023-03-09T17:46:52;14.20;;;4.10;;
36963;SDS011;22878;48.616;35.326;2023-03-09T17:49:18;11.90;;;3.90;;
36963;SDS011;22878;48.616;35.326;2023-03-09T17:51:43;8.20;;;3.30;;
36963;SDS011;22878;48.616;35.326;2023-03-09T17:54:09;13.10;;;3.90;;
36963;SDS011;22878;48.616;35.326;2023-03-09T17:56:34;9.70;;;3.60;;
36963;SDS011;22878;48.616;35.326;2023-03-09T17:59:00;10.40;;;3.90;;
36963;SDS011;22878;48.616;35.326;2023-03-09T18:01:27;20.80;;;4.70;;
36963;SDS011;22878;48.616;35.326;2023-03-09T18:03:54;10.30;;;3.60;;
36963;SDS011;22878;48.616;35.326;2023-03-09T18:06:24;9.80;;;3.40;;